createdAt,value
2018-10-02T00:00:11.884Z,88.03
2018-10-02T00:02:40.290Z,88.29
2018-10-02T00:05:08.698Z,87.91
2018-10-02T00:07:37.099Z,87.60
2018-10-02T00:10:05.651Z,87.90
2018-10-02T00:12:39.320Z,87.79
2018-10-02T00:15:07.985Z,87.85
2018-10-02T00:17:36.363Z,88.08
2018-10-02T00:20:04.819Z,88.35
2018-10-02T00:22:33.208Z,88.41
2018-10-02T00:25:01.612Z,87.76
2018-10-02T00:27:29.999Z,88.08
2018-10-02T00:29:58.408Z,88.45
2018-10-02T00:32:27.092Z,88.42
2018-10-02T00:34:55.466Z,88.28
2018-10-02T00:37:23.893Z,87.95
2018-10-02T00:39:52.346Z,88.37
2018-10-02T00:42:20.780Z,88.76
2018-10-02T00:44:49.197Z,89.23
2018-10-02T00:47:17.583Z,88.95
2018-10-02T00:49:47.020Z,90.44
2018-10-02T00:52:15.455Z,90.35
2018-10-02T00:54:43.871Z,90.01
2018-10-02T00:57:12.296Z,89.99
2018-10-02T00:59:40.751Z,90.81
2018-10-02T01:02:09.177Z,90.75
2018-10-02T01:04:37.594Z,91.06
2018-10-02T01:07:06.115Z,90.66
2018-10-02T01:09:34.556Z,91.24
2018-10-02T01:12:03.019Z,91.33
2018-10-02T01:14:31.424Z,90.73
2018-10-02T01:16:59.847Z,91.12
2018-10-02T01:19:28.236Z,90.46
2018-10-02T01:21:56.672Z,89.88
2018-10-02T01:24:25.108Z,90.37
2018-10-02T01:26:53.496Z,90.42
2018-10-02T01:29:21.918Z,90.33
2018-10-02T01:31:50.373Z,89.91
2018-10-02T01:34:18.878Z,90.73
2018-10-02T01:36:47.249Z,90.59
2018-10-02T01:39:15.634Z,91.08
2018-10-02T01:41:44.080Z,90.02
2018-10-02T01:44:12.453Z,90.57
2018-10-02T01:46:40.867Z,90.27
2018-10-02T01:49:09.305Z,90.62
2018-10-02T01:51:37.672Z,91.09
2018-10-02T01:54:06.129Z,91.06
2018-10-02T01:56:34.547Z,90.89
2018-10-02T01:59:02.945Z,90.51
2018-10-02T02:01:31.334Z,90.55
2018-10-02T02:03:59.752Z,90.94
2018-10-02T02:06:28.156Z,90.71
2018-10-02T02:08:56.582Z,90.24
2018-10-02T02:11:24.990Z,91.00
2018-10-02T02:13:53.364Z,90.73
2018-10-02T02:16:21.772Z,90.64
2018-10-02T02:18:50.239Z,90.47
2018-10-02T02:21:18.695Z,90.77
2018-10-02T02:23:47.088Z,90.72
2018-10-02T02:26:15.508Z,91.04
2018-10-02T02:28:43.900Z,90.79
2018-10-02T02:31:12.291Z,90.33
2018-10-02T02:33:40.741Z,91.04
2018-10-02T02:36:09.165Z,90.75
2018-10-02T02:38:37.589Z,91.23
2018-10-02T02:41:06.137Z,91.32
2018-10-02T02:43:34.542Z,91.73
2018-10-02T02:46:03.123Z,91.36
2018-10-02T02:49:35.535Z,91.36
2018-10-02T02:52:04.011Z,91.89
2018-10-02T02:54:32.432Z,91.75
2018-10-02T02:57:00.849Z,91.48
2018-10-02T02:59:29.290Z,91.96
2018-10-02T03:01:57.687Z,91.92
2018-10-02T03:04:26.138Z,91.76
2018-10-02T03:06:54.554Z,91.72
2018-10-02T03:09:23.024Z,91.98
2018-10-02T03:11:51.459Z,92.40
2018-10-02T03:14:19.835Z,92.14
2018-10-02T03:16:48.300Z,92.39
2018-10-02T03:19:16.688Z,91.86
2018-10-02T03:21:45.128Z,91.81
2018-10-02T03:24:13.535Z,91.83
2018-10-02T03:26:41.897Z,91.69
2018-10-02T03:29:10.318Z,92.70
2018-10-02T03:31:38.796Z,92.56
2018-10-02T03:34:07.184Z,92.18
2018-10-02T03:36:35.605Z,92.39
2018-10-02T03:39:05.036Z,91.95
2018-10-02T03:41:33.469Z,92.57
2018-10-02T03:44:01.872Z,92.62
2018-10-02T03:46:30.281Z,92.33
2018-10-02T03:48:58.744Z,92.05
2018-10-02T03:51:27.141Z,92.23
2018-10-02T03:53:55.582Z,92.14
2018-10-02T03:56:24.821Z,92.49
2018-10-02T03:58:53.348Z,92.50
2018-10-02T04:01:21.777Z,92.78
2018-10-02T04:03:50.198Z,92.21
2018-10-02T04:06:18.652Z,92.72
2018-10-02T04:08:47.025Z,92.53
2018-10-02T04:11:15.617Z,92.49
2018-10-02T04:13:44.026Z,92.05
2018-10-02T04:16:12.528Z,92.57
2018-10-02T04:18:40.913Z,91.61
2018-10-02T04:21:09.362Z,91.49
2018-10-02T04:23:37.757Z,91.99
2018-10-02T04:26:06.185Z,91.98
2018-10-02T04:28:34.576Z,92.00
2018-10-02T04:31:03.015Z,91.47
2018-10-02T04:33:31.461Z,91.79
2018-10-02T04:35:59.851Z,91.35
2018-10-02T04:38:28.571Z,91.29
2018-10-02T04:40:57.048Z,91.37
2018-10-02T04:43:25.436Z,91.05
2018-10-02T04:45:53.999Z,91.26
2018-10-02T04:48:22.394Z,90.70
2018-10-02T04:50:50.844Z,90.82
2018-10-02T04:53:19.268Z,90.61
2018-10-02T04:55:47.753Z,90.45
2018-10-02T04:58:16.080Z,90.41
2018-10-02T05:00:44.535Z,90.18
2018-10-02T05:03:12.970Z,90.28
2018-10-02T05:05:41.420Z,90.56
2018-10-02T05:08:10.577Z,89.92
2018-10-02T05:10:39.011Z,89.60
2018-10-02T05:13:08.389Z,88.98
2018-10-02T05:15:36.845Z,88.45
2018-10-02T05:18:06.969Z,88.34
2018-10-02T05:20:35.395Z,87.68
2018-10-02T05:23:03.852Z,87.71
2018-10-02T05:25:32.278Z,86.65
2018-10-02T05:28:00.691Z,87.06
2018-10-02T05:30:29.112Z,86.94
2018-10-02T05:32:57.758Z,86.64
2018-10-02T05:35:26.195Z,86.03
2018-10-02T05:37:54.623Z,86.37
2018-10-02T05:40:23.029Z,85.99
2018-10-02T05:42:51.503Z,85.45
2018-10-02T05:45:19.944Z,85.92
2018-10-02T05:47:48.355Z,86.04
2018-10-02T05:50:16.899Z,86.57
2018-10-02T05:52:46.151Z,86.19
2018-10-02T05:55:14.645Z,86.34
2018-10-02T05:57:43.119Z,86.63
2018-10-02T06:00:11.638Z,86.66
2018-10-02T06:02:40.099Z,86.77
2018-10-02T06:05:09.236Z,86.68
2018-10-02T06:07:37.658Z,86.90
2018-10-02T06:10:07.490Z,87.07
2018-10-02T06:12:35.940Z,87.23
2018-10-02T06:15:04.406Z,87.44
2018-10-02T06:17:32.818Z,87.24
2018-10-02T06:20:01.206Z,87.55
2018-10-02T06:22:29.743Z,87.13
2018-10-02T06:24:58.183Z,87.54
2018-10-02T06:27:26.640Z,87.02
2018-10-02T06:29:55.025Z,87.51
2018-10-02T06:32:23.542Z,88.05
2018-10-02T06:34:51.991Z,87.97
2018-10-02T06:37:20.406Z,88.53
2018-10-02T06:39:48.796Z,88.72
2018-10-02T06:42:17.256Z,88.58
2018-10-02T06:44:45.780Z,88.62
2018-10-02T06:47:14.090Z,88.67
2018-10-02T06:49:42.506Z,87.88
2018-10-02T06:52:11.036Z,88.12
2018-10-02T06:54:39.411Z,88.52
2018-10-02T06:57:07.893Z,88.49
2018-10-02T06:59:36.290Z,88.47
2018-10-02T07:02:04.819Z,88.90
2018-10-02T07:04:33.199Z,88.58
2018-10-02T07:07:01.593Z,89.07
2018-10-02T07:09:30.021Z,88.40
2018-10-02T07:11:58.469Z,88.73
2018-10-02T07:14:26.916Z,88.19
2018-10-02T07:16:55.399Z,87.71
2018-10-02T07:19:23.884Z,88.30
2018-10-02T07:21:52.333Z,89.00
2018-10-02T07:24:20.721Z,88.44
2018-10-02T07:26:49.357Z,88.76
2018-10-02T07:29:17.700Z,88.62
2018-10-02T07:31:46.099Z,88.73
2018-10-02T07:34:14.620Z,88.17
2018-10-02T07:36:43.133Z,87.30
2018-10-02T07:39:11.585Z,87.79
2018-10-02T07:41:40.086Z,88.42
2018-10-02T07:44:08.468Z,88.17
2018-10-02T07:46:36.950Z,87.63
2018-10-02T07:49:05.420Z,87.93
2018-10-02T07:51:34.641Z,87.09
2018-10-02T07:54:03.099Z,86.87
2018-10-02T07:56:31.636Z,87.51
2018-10-02T07:59:00.114Z,87.08
2018-10-02T08:01:28.592Z,87.33
2018-10-02T08:03:56.993Z,87.37
2018-10-02T08:06:25.505Z,87.40
2018-10-02T08:08:53.938Z,88.40
2018-10-02T08:11:22.429Z,88.86
2018-10-02T08:13:50.760Z,89.56
2018-10-02T08:16:19.233Z,90.00
2018-10-02T08:18:47.657Z,90.31
2018-10-02T08:21:16.163Z,89.87
2018-10-02T08:23:44.631Z,89.69
2018-10-02T08:26:13.035Z,90.35
2018-10-02T08:28:41.539Z,90.88
2018-10-02T08:31:09.956Z,90.66
2018-10-02T08:33:39.988Z,90.70
2018-10-02T08:36:08.671Z,90.82
2018-10-02T08:38:37.063Z,90.91
2018-10-02T08:41:05.457Z,90.75
2018-10-02T08:43:34.074Z,91.34
2018-10-02T08:46:02.431Z,91.07
2018-10-02T08:48:30.828Z,90.58
2018-10-02T08:50:59.400Z,91.40
2018-10-02T08:53:28.559Z,91.36
2018-10-02T08:55:56.932Z,91.66
2018-10-02T08:58:25.454Z,91.12
2018-10-02T09:00:54.211Z,91.11
2018-10-02T09:03:22.684Z,91.26
2018-10-02T09:05:51.115Z,91.44
2018-10-02T09:08:19.560Z,91.65
2018-10-02T09:10:48.042Z,91.66
2018-10-02T09:13:16.443Z,91.29
2018-10-02T09:15:44.890Z,91.55
2018-10-02T09:18:13.275Z,91.72
2018-10-02T09:20:41.860Z,92.25
2018-10-02T09:23:10.251Z,92.46
2018-10-02T09:25:38.670Z,92.86
2018-10-02T09:28:07.338Z,92.86
2018-10-02T09:30:42.002Z,92.74
2018-10-02T09:33:15.580Z,92.65
2018-10-02T09:35:49.247Z,93.09
2018-10-02T09:38:23.048Z,94.03
2018-10-02T09:40:56.915Z,94.08
2018-10-02T09:43:30.616Z,94.44
2018-10-02T09:45:59.716Z,94.19
2018-10-02T09:48:28.111Z,94.62
2018-10-02T09:50:56.529Z,94.77
2018-10-02T09:53:24.950Z,94.90
2018-10-02T09:55:53.390Z,94.62
2018-10-02T09:58:21.814Z,94.93
2018-10-02T10:00:55.493Z,94.81
2018-10-02T10:03:23.837Z,95.34
2018-10-02T10:05:52.253Z,94.82
2018-10-02T10:08:20.661Z,95.22
2018-10-02T10:10:50.025Z,94.88
2018-10-02T10:13:18.470Z,95.09
2018-10-02T10:15:46.945Z,95.58
2018-10-02T10:18:16.034Z,95.28
2018-10-02T10:20:44.631Z,95.70
2018-10-02T10:23:13.069Z,96.10
2018-10-02T10:25:41.505Z,96.04
2018-10-02T10:28:09.944Z,95.65
2018-10-02T10:30:38.411Z,95.51
2018-10-02T10:33:06.818Z,96.33
2018-10-02T10:35:35.233Z,96.54
2018-10-02T10:38:03.673Z,95.81
2018-10-02T10:40:32.136Z,96.69
2018-10-02T10:43:00.522Z,96.07
2018-10-02T10:45:29.210Z,96.08
2018-10-02T10:47:57.674Z,96.88
2018-10-02T10:50:26.171Z,96.87
2018-10-02T10:52:54.805Z,96.27
2018-10-02T10:55:26.300Z,96.91
2018-10-02T10:57:54.777Z,97.23
2018-10-02T11:00:24.277Z,96.76
2018-10-02T11:02:53.555Z,97.07
2018-10-02T11:05:22.012Z,96.69
2018-10-02T11:07:52.101Z,96.65
2018-10-02T11:10:20.692Z,96.66
2018-10-02T11:12:49.957Z,97.32
2018-10-02T11:15:19.532Z,97.16
2018-10-02T11:17:47.921Z,97.53
2018-10-02T11:20:19.155Z,96.77
2018-10-02T11:22:47.567Z,97.18
2018-10-02T11:25:15.998Z,96.93
2018-10-02T11:27:44.457Z,97.00
2018-10-02T11:30:13.276Z,97.40
2018-10-02T11:32:41.698Z,97.27
2018-10-02T11:35:10.255Z,97.07
2018-10-02T11:37:38.996Z,97.06
2018-10-02T11:40:07.482Z,96.84
2018-10-02T11:42:35.947Z,97.60
2018-10-02T11:45:04.548Z,97.27
2018-10-02T11:47:32.947Z,97.66
2018-10-02T11:50:01.431Z,97.71
2018-10-02T11:52:29.931Z,97.98
2018-10-02T11:54:58.323Z,98.15
2018-10-02T11:57:28.373Z,97.92
2018-10-02T11:59:56.816Z,97.64
2018-10-02T12:02:25.469Z,97.82
2018-10-02T12:04:53.881Z,97.99
2018-10-02T12:07:22.329Z,97.50
2018-10-02T12:09:50.757Z,98.28
2018-10-02T12:12:19.205Z,98.47
2018-10-02T12:14:47.715Z,97.90
2018-10-02T12:17:16.096Z,98.46
2018-10-02T12:19:44.579Z,98.04
2018-10-02T12:22:12.982Z,98.01
2018-10-02T12:24:41.410Z,98.05
2018-10-02T12:27:10.094Z,98.19
2018-10-02T12:29:38.555Z,98.35
2018-10-02T12:32:07.082Z,98.00
2018-10-02T12:34:35.512Z,98.14
2018-10-02T12:37:03.949Z,98.15
2018-10-02T12:39:32.359Z,98.40
2018-10-02T12:42:00.758Z,98.29
2018-10-02T12:44:29.308Z,98.77
2018-10-02T12:46:57.755Z,98.72
2018-10-02T12:49:26.366Z,98.56
2018-10-02T12:51:54.811Z,98.16
2018-10-02T12:54:23.250Z,99.11
2018-10-02T12:56:51.688Z,98.58
2018-10-02T12:59:20.166Z,98.37
2018-10-02T13:01:48.628Z,98.94
2018-10-02T13:04:17.133Z,98.89
2018-10-02T13:06:45.578Z,98.98
2018-10-02T13:09:14.331Z,98.67
2018-10-02T13:11:42.756Z,99.21
2018-10-02T13:14:11.185Z,99.14
2018-10-02T13:16:39.639Z,99.04
2018-10-02T13:19:08.059Z,99.33
2018-10-02T13:21:36.529Z,98.95
2018-10-02T13:24:05.009Z,98.95
2018-10-02T13:26:33.498Z,99.13
2018-10-02T13:29:01.992Z,99.46
2018-10-02T13:31:30.561Z,98.79
2018-10-02T13:33:59.065Z,99.50
2018-10-02T13:36:27.499Z,99.62
2018-10-02T13:38:55.924Z,99.75
2018-10-02T13:41:24.370Z,99.73
2018-10-02T13:43:52.829Z,99.30
2018-10-02T13:46:21.280Z,99.63
2018-10-02T13:48:49.741Z,98.97
2018-10-02T13:51:18.226Z,99.63
2018-10-02T13:53:46.696Z,99.67
2018-10-02T13:56:15.180Z,99.74
2018-10-02T13:58:43.660Z,99.56
2018-10-02T14:01:12.145Z,99.43
2018-10-02T14:03:40.546Z,99.12
2018-10-02T14:06:09.923Z,99.49
2018-10-02T14:08:39.096Z,99.11
2018-10-02T14:11:09.791Z,99.34
2018-10-02T14:13:38.598Z,99.66
2018-10-02T14:16:07.180Z,99.66
2018-10-02T14:18:35.606Z,99.05
2018-10-02T14:21:04.042Z,98.92
2018-10-02T14:23:32.509Z,99.51
2018-10-02T14:26:02.182Z,99.50
2018-10-02T14:28:30.740Z,99.15
2018-10-02T14:30:59.191Z,99.78
2018-10-02T14:33:27.843Z,99.88
2018-10-02T14:35:56.279Z,99.61
2018-10-02T14:38:25.393Z,99.32
2018-10-02T14:40:53.809Z,99.01
2018-10-02T14:43:22.712Z,99.49
2018-10-02T14:45:51.403Z,99.23
2018-10-02T14:48:19.812Z,99.26
2018-10-02T14:50:48.353Z,99.31
2018-10-02T14:53:17.844Z,99.13
2018-10-02T14:55:46.365Z,99.92
2018-10-02T14:58:14.797Z,99.54
2018-10-02T15:00:43.255Z,98.98
2018-10-02T15:03:11.696Z,99.35
2018-10-02T15:05:40.128Z,99.32
2018-10-02T15:08:08.605Z,100.00
2018-10-02T15:10:37.099Z,99.98
2018-10-02T15:13:05.577Z,99.68
2018-10-02T15:15:34.036Z,99.38
2018-10-02T15:18:03.075Z,99.57
2018-10-02T15:20:31.601Z,99.08
2018-10-02T15:23:00.087Z,98.88
2018-10-02T15:25:28.508Z,99.39
2018-10-02T15:27:56.998Z,99.28
2018-10-02T15:30:25.518Z,99.41
2018-10-02T15:32:54.067Z,98.81
2018-10-02T15:35:22.519Z,99.65
2018-10-02T15:37:51.307Z,99.41
2018-10-02T15:40:19.661Z,99.34
2018-10-02T15:42:48.263Z,99.61
2018-10-02T15:45:16.815Z,98.70
2018-10-02T15:47:45.383Z,98.32
2018-10-02T15:50:13.837Z,98.48
2018-10-02T15:52:43.490Z,98.44
2018-10-02T15:55:11.929Z,98.52
2018-10-02T15:57:40.521Z,98.45
2018-10-02T16:00:09.012Z,98.81
2018-10-02T16:02:37.514Z,98.04
2018-10-02T16:05:06.054Z,98.70
2018-10-02T16:07:34.547Z,98.70
2018-10-02T16:10:02.981Z,98.03
2018-10-02T16:12:31.480Z,97.98
2018-10-02T16:14:59.909Z,98.59
2018-10-02T16:17:28.428Z,98.69
2018-10-02T16:19:56.873Z,98.61
2018-10-02T16:22:25.379Z,98.48
2018-10-02T16:24:53.832Z,98.03
2018-10-02T16:27:22.212Z,97.86
2018-10-02T16:29:50.649Z,98.45
2018-10-02T16:32:19.128Z,97.85
2018-10-02T16:34:49.766Z,97.57
2018-10-02T16:37:16.082Z,97.24
2018-10-02T16:39:44.508Z,96.76
2018-10-02T16:42:13.389Z,96.08
2018-10-02T16:44:41.870Z,95.67
2018-10-02T16:47:10.416Z,94.45
2018-10-02T16:49:38.724Z,94.31
2018-10-02T16:52:07.416Z,94.82
2018-10-02T16:54:36.042Z,94.45
2018-10-02T16:57:04.371Z,94.17
2018-10-02T16:59:32.767Z,94.58
2018-10-02T17:02:01.216Z,94.77
2018-10-02T17:04:29.777Z,94.79
2018-10-02T17:06:58.775Z,93.98
2018-10-02T17:09:27.293Z,93.90
2018-10-02T17:11:55.723Z,94.72
2018-10-02T17:14:24.869Z,94.25
2018-10-02T17:16:53.316Z,95.28
2018-10-02T17:19:22.963Z,94.83
2018-10-02T17:21:51.430Z,94.56
2018-10-02T17:24:19.869Z,95.41
2018-10-02T17:26:48.280Z,95.32
2018-10-02T17:29:16.731Z,94.29
2018-10-02T17:31:45.152Z,95.27
2018-10-02T17:34:13.619Z,95.35
2018-10-02T17:36:42.116Z,95.37
2018-10-02T17:39:11.588Z,94.86
2018-10-02T17:41:40.248Z,95.71
2018-10-02T17:44:08.687Z,95.27
2018-10-02T17:46:37.196Z,95.13
2018-10-02T17:49:05.779Z,95.69
2018-10-02T17:51:34.122Z,96.31
2018-10-02T17:54:02.579Z,95.58
2018-10-02T17:56:32.241Z,96.04
2018-10-02T17:59:00.677Z,96.13
2018-10-02T18:01:29.130Z,96.54
2018-10-02T18:03:57.557Z,96.65
2018-10-02T18:06:25.987Z,96.36
2018-10-02T18:08:54.528Z,97.15
2018-10-02T18:11:23.134Z,97.06
2018-10-02T18:13:51.591Z,96.57
2018-10-02T18:16:20.017Z,96.92
2018-10-02T18:18:48.419Z,96.98
2018-10-02T18:21:16.873Z,96.94
2018-10-02T18:23:45.275Z,97.66
2018-10-02T18:26:13.713Z,97.77
2018-10-02T18:28:42.158Z,97.34
2018-10-02T18:31:10.567Z,97.35
2018-10-02T18:33:39.045Z,97.88
2018-10-02T18:36:07.484Z,97.59
2018-10-02T18:38:36.087Z,98.09
2018-10-02T18:41:04.613Z,98.30
2018-10-02T18:43:33.105Z,98.35
2018-10-02T18:46:01.592Z,97.61
2018-10-02T18:48:30.116Z,98.29
2018-10-02T18:50:58.595Z,98.15
2018-10-02T18:53:27.099Z,97.93
2018-10-02T18:55:55.541Z,98.06
2018-10-02T18:58:24.000Z,97.92
2018-10-02T19:00:52.453Z,98.48
2018-10-02T19:03:20.881Z,97.83
2018-10-02T19:05:49.399Z,98.50
2018-10-02T19:08:21.970Z,98.69
2018-10-02T19:10:50.409Z,98.00
2018-10-02T19:13:18.859Z,98.67
2018-10-02T19:15:52.449Z,98.86
2018-10-02T19:18:20.927Z,98.78
2018-10-02T19:20:51.529Z,97.99
2018-10-02T19:23:20.077Z,98.69
2018-10-02T19:25:53.783Z,98.33
2018-10-02T19:28:22.287Z,98.82
2018-10-02T19:30:56.022Z,98.29
2018-10-02T19:33:24.605Z,98.37
2018-10-02T19:35:53.305Z,98.33
2018-10-02T19:38:27.109Z,98.67
2018-10-02T19:40:55.901Z,98.29
2018-10-02T19:43:24.416Z,98.74
2018-10-02T19:45:58.151Z,98.22
2018-10-02T19:48:26.592Z,98.98
2018-10-02T19:51:00.288Z,98.20
2018-10-02T19:53:28.753Z,98.66
2018-10-02T19:55:57.267Z,98.40
2018-10-02T19:58:25.765Z,98.78
2018-10-02T20:00:54.183Z,98.36
2018-10-02T20:03:22.595Z,98.69
2018-10-02T20:05:51.888Z,98.30
2018-10-02T20:08:20.347Z,98.06
2018-10-02T20:10:48.800Z,98.50
2018-10-02T20:13:18.175Z,98.74
2018-10-02T20:15:46.594Z,98.87
2018-10-02T20:18:15.025Z,98.89
2018-10-02T20:20:43.624Z,98.76
2018-10-02T20:23:12.108Z,98.20
2018-10-02T20:25:40.679Z,98.27
2018-10-02T20:28:09.100Z,98.25
2018-10-02T20:30:37.672Z,98.74
2018-10-02T20:33:06.239Z,98.80
2018-10-02T20:35:34.672Z,98.78
2018-10-02T20:38:03.115Z,98.80
2018-10-02T20:40:31.642Z,98.97
2018-10-02T20:43:00.086Z,98.37
2018-10-02T20:45:28.615Z,98.14
2018-10-02T20:47:57.096Z,98.69
2018-10-02T20:50:25.536Z,98.36
2018-10-02T20:52:54.339Z,98.97
2018-10-02T20:55:23.026Z,98.58
2018-10-02T20:57:51.669Z,98.98
2018-10-02T21:00:20.286Z,98.89
2018-10-02T21:02:48.753Z,99.04
2018-10-02T21:05:17.200Z,98.23
2018-10-02T21:07:45.652Z,98.96
2018-10-02T21:10:14.065Z,98.57
2018-10-02T21:12:42.658Z,98.79
2018-10-02T21:15:11.172Z,98.31
2018-10-02T21:17:39.540Z,99.06
2018-10-02T21:20:08.224Z,98.93
2018-10-02T21:22:36.658Z,98.46
2018-10-02T21:25:05.371Z,99.02
2018-10-02T21:27:33.815Z,98.78
2018-10-02T21:30:02.309Z,98.46
2018-10-02T21:32:30.702Z,98.94
2018-10-02T21:34:59.084Z,98.68
2018-10-02T21:37:27.533Z,98.44
2018-10-02T21:39:56.044Z,98.73
2018-10-02T21:42:24.460Z,99.06
2018-10-02T21:44:52.917Z,98.78
2018-10-02T21:47:21.371Z,98.48
2018-10-02T21:49:49.842Z,98.33
2018-10-02T21:52:18.278Z,98.61
2018-10-02T21:54:46.798Z,98.28
2018-10-02T21:57:15.260Z,99.14
2018-10-02T21:59:43.725Z,98.83
2018-10-02T22:02:12.188Z,98.77
2018-10-02T22:04:40.851Z,98.71
2018-10-02T22:07:09.771Z,98.34
2018-10-02T22:09:38.195Z,98.33
2018-10-02T22:12:06.738Z,98.39
2018-10-02T22:14:35.273Z,99.19
2018-10-02T22:17:03.852Z,98.68
2018-10-02T22:19:32.260Z,98.82
2018-10-02T22:22:01.325Z,99.08
2018-10-02T22:24:29.769Z,99.23
2018-10-02T22:26:58.160Z,99.24
2018-10-02T22:29:26.645Z,99.03
2018-10-02T22:31:55.096Z,98.84
2018-10-02T22:34:23.500Z,98.63
2018-10-02T22:36:51.926Z,99.24
2018-10-02T22:39:20.338Z,98.63
2018-10-02T22:41:48.797Z,99.14
2018-10-02T22:44:17.239Z,99.16
2018-10-02T22:46:45.643Z,99.23
2018-10-02T22:49:14.084Z,99.23
2018-10-02T22:51:42.533Z,98.71
2018-10-02T22:54:11.027Z,98.70
2018-10-02T22:56:39.459Z,98.69
2018-10-02T22:59:07.933Z,98.69
2018-10-02T23:01:36.316Z,98.67
2018-10-02T23:04:04.809Z,99.05
2018-10-02T23:06:33.377Z,99.15
2018-10-02T23:09:01.844Z,98.40
2018-10-02T23:11:30.207Z,98.92
2018-10-02T23:13:58.644Z,98.43
2018-10-02T23:16:27.052Z,98.53
2018-10-02T23:18:55.448Z,98.66
2018-10-02T23:21:24.227Z,98.78
2018-10-02T23:23:52.657Z,98.95
2018-10-02T23:26:21.228Z,98.93
2018-10-02T23:28:49.609Z,98.80
2018-10-02T23:31:18.119Z,98.52
2018-10-02T23:33:46.535Z,98.92
2018-10-02T23:36:14.984Z,98.89
2018-10-02T23:38:43.453Z,98.38
2018-10-02T23:41:11.879Z,99.05
2018-10-02T23:43:40.293Z,98.32
2018-10-02T23:46:08.736Z,98.53
2018-10-02T23:48:37.234Z,98.37
2018-10-02T23:51:06.066Z,99.25
2018-10-02T23:53:34.487Z,99.14
2018-10-02T23:56:02.946Z,98.47
2018-10-02T23:58:31.334Z,98.33
